sensor_id;sensor_type;location;lat;lon;timestamp;temperature;humidity
21163;DHT22;10739;52.198;20.908;2022-07-21T00:01:55;20.40;99.90
21163;DHT22;10739;52.198;20.908;2022-07-21T00:04:21;20.30;99.90
21163;DHT22;10739;52.198;20.908;2022-07-21T00:06:48;20.30;99.90
21163;DHT22;10739;52.198;20.908;2022-07-21T00:09:15;20.20;99.90
21163;DHT22;10739;52.198;20.908;2022-07-21T00:11:41;20.10;99.90
21163;DHT22;10739;52.198;20.908;2022-07-21T00:14:09;20.10;99.90
21163;DHT22;10739;52.198;20.908;2022-07-21T00:16:37;20.00;99.90
21163;DHT22;10739;52.198;20.908;2022-07-21T00:19:05;20.00;99.90
21163;DHT22;10739;52.198;20.908;2022-07-21T00:21:33;19.90;99.90
21163;DHT22;10739;52.198;20.908;2022-07-21T00:24:29;19.80;99.90
21163;DHT22;10739;52.198;20.908;2022-07-21T00:26:55;19.80;99.90
21163;DHT22;10739;52.198;20.908;2022-07-21T00:29:21;19.80;99.90
21163;DHT22;10739;52.198;20.908;2022-07-21T00:31:47;19.80;99.90
21163;DHT22;10739;52.198;20.908;2022-07-21T00:34:13;19.70;99.90
21163;DHT22;10739;52.198;20.908;2022-07-21T00:36:40;19.60;99.90
21163;DHT22;10739;52.198;20.908;2022-07-21T00:39:06;19.60;99.90
21163;DHT22;10739;52.198;20.908;2022-07-21T00:41:33;19.60;99.90
21163;DHT22;10739;52.198;20.908;2022-07-21T00:44:00;19.50;99.90
21163;DHT22;10739;52.198;20.908;2022-07-21T00:46:26;19.50;99.90
21163;DHT22;10739;52.198;20.908;2022-07-21T00:48:53;19.50;99.90
21163;DHT22;10739;52.198;20.908;2022-07-21T00:51:19;19.50;99.90
21163;DHT22;10739;52.198;20.908;2022-07-21T00:53:45;19.40;99.90
21163;DHT22;10739;52.198;20.908;2022-07-21T00:56:12;19.40;99.90
21163;DHT22;10739;52.198;20.908;2022-07-21T00:58:40;19.40;99.90
21163;DHT22;10739;52.198;20.908;2022-07-21T01:01:06;19.30;99.90
21163;DHT22;10739;52.198;20.908;2022-07-21T01:03:32;19.30;99.90
21163;DHT22;10739;52.198;20.908;2022-07-21T01:05:59;19.40;99.90
21163;DHT22;10739;52.198;20.908;2022-07-21T01:08:26;19.40;99.90
21163;DHT22;10739;52.198;20.908;2022-07-21T01:10:53;19.30;99.90
21163;DHT22;10739;52.198;20.908;2022-07-21T01:13:20;19.40;99.90
21163;DHT22;10739;52.198;20.908;2022-07-21T01:15:47;19.30;99.90
21163;DHT22;10739;52.198;20.908;2022-07-21T01:18:14;19.30;99.90
21163;DHT22;10739;52.198;20.908;2022-07-21T01:20:41;19.20;99.90
21163;DHT22;10739;52.198;20.908;2022-07-21T01:23:14;19.20;99.90
21163;DHT22;10739;52.198;20.908;2022-07-21T01:25:42;19.10;99.90
21163;DHT22;10739;52.198;20.908;2022-07-21T01:28:16;19.10;99.90
21163;DHT22;10739;52.198;20.908;2022-07-21T01:30:42;19.00;99.90
21163;DHT22;10739;52.198;20.908;2022-07-21T01:33:08;19.00;99.90
21163;DHT22;10739;52.198;20.908;2022-07-21T01:35:35;19.00;99.90
21163;DHT22;10739;52.198;20.908;2022-07-21T01:38:01;18.90;99.90
21163;DHT22;10739;52.198;20.908;2022-07-21T01:40:28;18.90;99.90
21163;DHT22;10739;52.198;20.908;2022-07-21T01:43:13;18.90;99.90
21163;DHT22;10739;52.198;20.908;2022-07-21T01:45:40;18.80;99.90
21163;DHT22;10739;52.198;20.908;2022-07-21T01:48:08;18.80;99.90
21163;DHT22;10739;52.198;20.908;2022-07-21T01:50:42;18.70;99.90
21163;DHT22;10739;52.198;20.908;2022-07-21T01:53:10;18.70;99.90
21163;DHT22;10739;52.198;20.908;2022-07-21T01:55:36;18.60;99.90
21163;DHT22;10739;52.198;20.908;2022-07-21T01:58:02;18.60;99.90
21163;DHT22;10739;52.198;20.908;2022-07-21T02:00:29;18.50;99.90
21163;DHT22;10739;52.198;20.908;2022-07-21T02:02:55;18.50;99.90
21163;DHT22;10739;52.198;20.908;2022-07-21T02:05:21;18.50;99.90
21163;DHT22;10739;52.198;20.908;2022-07-21T02:07:48;18.50;99.90
21163;DHT22;10739;52.198;20.908;2022-07-21T02:10:14;18.50;99.90
21163;DHT22;10739;52.198;20.908;2022-07-21T02:12:40;18.50;99.90
21163;DHT22;10739;52.198;20.908;2022-07-21T02:15:07;18.40;99.90
21163;DHT22;10739;52.198;20.908;2022-07-21T02:17:34;18.40;99.90
21163;DHT22;10739;52.198;20.908;2022-07-21T02:20:00;18.40;99.90
21163;DHT22;10739;52.198;20.908;2022-07-21T02:22:26;18.40;99.90
21163;DHT22;10739;52.198;20.908;2022-07-21T02:24:52;18.30;99.90
21163;DHT22;10739;52.198;20.908;2022-07-21T02:27:18;18.40;99.90
21163;DHT22;10739;52.198;20.908;2022-07-21T02:29:44;18.40;99.90
21163;DHT22;10739;52.198;20.908;2022-07-21T02:32:10;18.40;99.90
21163;DHT22;10739;52.198;20.908;2022-07-21T02:34:36;18.40;99.90
21163;DHT22;10739;52.198;20.908;2022-07-21T02:37:02;18.30;99.90
21163;DHT22;10739;52.198;20.908;2022-07-21T02:39:28;18.30;99.90
21163;DHT22;10739;52.198;20.908;2022-07-21T02:41:55;18.30;99.90
21163;DHT22;10739;52.198;20.908;2022-07-21T02:44:21;18.30;99.90
21163;DHT22;10739;52.198;20.908;2022-07-21T02:46:47;18.20;99.90
21163;DHT22;10739;52.198;20.908;2022-07-21T02:49:13;18.30;99.90
21163;DHT22;10739;52.198;20.908;2022-07-21T02:51:39;18.30;99.90
21163;DHT22;10739;52.198;20.908;2022-07-21T02:54:05;18.20;99.90
21163;DHT22;10739;52.198;20.908;2022-07-21T02:56:32;18.20;99.90
21163;DHT22;10739;52.198;20.908;2022-07-21T02:58:58;18.10;99.90
21163;DHT22;10739;52.198;20.908;2022-07-21T03:01:24;18.10;99.90
21163;DHT22;10739;52.198;20.908;2022-07-21T03:03:50;18.20;99.90
21163;DHT22;10739;52.198;20.908;2022-07-21T03:06:16;18.20;99.90
21163;DHT22;10739;52.198;20.908;2022-07-21T03:08:42;18.20;99.90
21163;DHT22;10739;52.198;20.908;2022-07-21T03:11:09;18.20;99.90
21163;DHT22;10739;52.198;20.908;2022-07-21T03:13:35;18.10;99.90
21163;DHT22;10739;52.198;20.908;2022-07-21T03:16:01;18.10;99.90
21163;DHT22;10739;52.198;20.908;2022-07-21T03:18:27;18.10;99.90
21163;DHT22;10739;52.198;20.908;2022-07-21T03:20:54;18.20;99.90
21163;DHT22;10739;52.198;20.908;2022-07-21T03:23:20;18.20;99.90
21163;DHT22;10739;52.198;20.908;2022-07-21T03:25:46;18.20;99.90
21163;DHT22;10739;52.198;20.908;2022-07-21T03:28:12;18.20;99.90
21163;DHT22;10739;52.198;20.908;2022-07-21T03:30:39;18.20;99.90
21163;DHT22;10739;52.198;20.908;2022-07-21T03:33:05;18.20;99.90
21163;DHT22;10739;52.198;20.908;2022-07-21T03:35:32;18.20;99.90
21163;DHT22;10739;52.198;20.908;2022-07-21T03:38:02;18.20;99.90
21163;DHT22;10739;52.198;20.908;2022-07-21T03:40:31;18.20;99.90
21163;DHT22;10739;52.198;20.908;2022-07-21T03:43:01;18.20;99.90
21163;DHT22;10739;52.198;20.908;2022-07-21T03:45:29;18.30;99.90
21163;DHT22;10739;52.198;20.908;2022-07-21T03:48:00;18.30;99.90
21163;DHT22;10739;52.198;20.908;2022-07-21T03:50:29;18.40;99.90
21163;DHT22;10739;52.198;20.908;2022-07-21T03:52:56;18.50;99.90
21163;DHT22;10739;52.198;20.908;2022-07-21T03:55:23;18.50;99.90
21163;DHT22;10739;52.198;20.908;2022-07-21T03:57:54;18.50;99.90
21163;DHT22;10739;52.198;20.908;2022-07-21T04:00:42;18.50;99.90
21163;DHT22;10739;52.198;20.908;2022-07-21T04:03:10;18.50;99.90
21163;DHT22;10739;52.198;20.908;2022-07-21T04:05:38;18.60;99.90
21163;DHT22;10739;52.198;20.908;2022-07-21T04:08:06;18.60;99.90
21163;DHT22;10739;52.198;20.908;2022-07-21T04:10:36;18.70;99.90
21163;DHT22;10739;52.198;20.908;2022-07-21T04:13:07;18.70;99.90
21163;DHT22;10739;52.198;20.908;2022-07-21T04:15:36;18.80;99.90
21163;DHT22;10739;52.198;20.908;2022-07-21T04:18:04;18.80;99.90
21163;DHT22;10739;52.198;20.908;2022-07-21T04:20:32;18.90;99.90
21163;DHT22;10739;52.198;20.908;2022-07-21T04:22:59;19.00;99.90
21163;DHT22;10739;52.198;20.908;2022-07-21T04:25:25;19.10;99.90
21163;DHT22;10739;52.198;20.908;2022-07-21T04:27:52;19.20;99.90
21163;DHT22;10739;52.198;20.908;2022-07-21T04:30:20;19.30;99.90
21163;DHT22;10739;52.198;20.908;2022-07-21T04:32:50;19.40;99.90
21163;DHT22;10739;52.198;20.908;2022-07-21T04:35:17;19.40;99.90
21163;DHT22;10739;52.198;20.908;2022-07-21T04:37:44;19.50;99.90
21163;DHT22;10739;52.198;20.908;2022-07-21T04:40:12;19.60;99.90
21163;DHT22;10739;52.198;20.908;2022-07-21T04:42:39;19.70;99.90
21163;DHT22;10739;52.198;20.908;2022-07-21T04:45:08;19.80;99.90
21163;DHT22;10739;52.198;20.908;2022-07-21T04:47:44;19.80;99.90
21163;DHT22;10739;52.198;20.908;2022-07-21T04:50:19;19.90;99.90
21163;DHT22;10739;52.198;20.908;2022-07-21T04:52:51;20.00;99.90
21163;DHT22;10739;52.198;20.908;2022-07-21T04:55:18;20.10;99.90
21163;DHT22;10739;52.198;20.908;2022-07-21T04:57:47;20.20;99.90
21163;DHT22;10739;52.198;20.908;2022-07-21T05:00:17;20.30;99.90
21163;DHT22;10739;52.198;20.908;2022-07-21T05:02:46;20.30;99.90
21163;DHT22;10739;52.198;20.908;2022-07-21T05:05:13;20.40;99.90
21163;DHT22;10739;52.198;20.908;2022-07-21T05:07:39;20.50;99.90
21163;DHT22;10739;52.198;20.908;2022-07-21T05:10:07;20.60;99.90
21163;DHT22;10739;52.198;20.908;2022-07-21T05:12:35;20.70;99.90
21163;DHT22;10739;52.198;20.908;2022-07-21T05:15:03;20.70;99.90
21163;DHT22;10739;52.198;20.908;2022-07-21T05:17:30;20.80;99.90
21163;DHT22;10739;52.198;20.908;2022-07-21T05:19:56;20.80;99.90
21163;DHT22;10739;52.198;20.908;2022-07-21T05:22:24;20.90;99.90
21163;DHT22;10739;52.198;20.908;2022-07-21T05:24:51;21.00;99.90
21163;DHT22;10739;52.198;20.908;2022-07-21T05:27:17;21.10;99.90
21163;DHT22;10739;52.198;20.908;2022-07-21T05:29:43;21.20;99.90
21163;DHT22;10739;52.198;20.908;2022-07-21T05:32:10;21.30;99.90
21163;DHT22;10739;52.198;20.908;2022-07-21T05:34:36;21.40;99.90
21163;DHT22;10739;52.198;20.908;2022-07-21T05:37:02;21.40;99.90
21163;DHT22;10739;52.198;20.908;2022-07-21T05:39:29;21.50;99.90
21163;DHT22;10739;52.198;20.908;2022-07-21T05:41:55;21.50;99.90
21163;DHT22;10739;52.198;20.908;2022-07-21T05:44:21;21.60;99.90
21163;DHT22;10739;52.198;20.908;2022-07-21T05:46:47;21.60;99.90
21163;DHT22;10739;52.198;20.908;2022-07-21T05:49:13;21.70;99.90
21163;DHT22;10739;52.198;20.908;2022-07-21T05:51:39;21.70;99.90
21163;DHT22;10739;52.198;20.908;2022-07-21T05:54:06;21.70;99.90
21163;DHT22;10739;52.198;20.908;2022-07-21T05:56:32;21.80;99.90
21163;DHT22;10739;52.198;20.908;2022-07-21T05:58:58;21.90;99.90
21163;DHT22;10739;52.198;20.908;2022-07-21T06:01:24;22.00;99.90
21163;DHT22;10739;52.198;20.908;2022-07-21T06:03:51;22.10;99.90
21163;DHT22;10739;52.198;20.908;2022-07-21T06:06:19;22.20;99.90
21163;DHT22;10739;52.198;20.908;2022-07-21T06:08:47;22.30;99.90
21163;DHT22;10739;52.198;20.908;2022-07-21T06:11:17;22.40;99.90
21163;DHT22;10739;52.198;20.908;2022-07-21T06:13:45;22.40;99.90
21163;DHT22;10739;52.198;20.908;2022-07-21T06:16:12;22.70;99.90
21163;DHT22;10739;52.198;20.908;2022-07-21T06:18:38;22.60;99.90
21163;DHT22;10739;52.198;20.908;2022-07-21T06:21:05;22.60;99.90
21163;DHT22;10739;52.198;20.908;2022-07-21T06:23:31;22.70;99.90
21163;DHT22;10739;52.198;20.908;2022-07-21T06:25:57;22.70;99.90
21163;DHT22;10739;52.198;20.908;2022-07-21T06:28:24;22.60;99.90
21163;DHT22;10739;52.198;20.908;2022-07-21T06:30:50;22.60;99.90
21163;DHT22;10739;52.198;20.908;2022-07-21T06:33:17;22.70;99.90
21163;DHT22;10739;52.198;20.908;2022-07-21T06:35:44;22.70;99.90
21163;DHT22;10739;52.198;20.908;2022-07-21T06:38:10;22.90;99.90
21163;DHT22;10739;52.198;20.908;2022-07-21T06:40:36;23.00;99.90
21163;DHT22;10739;52.198;20.908;2022-07-21T06:43:02;23.10;99.90
21163;DHT22;10739;52.198;20.908;2022-07-21T06:45:29;23.10;99.90
21163;DHT22;10739;52.198;20.908;2022-07-21T06:48:05;23.10;99.90
21163;DHT22;10739;52.198;20.908;2022-07-21T06:50:34;23.20;99.90
21163;DHT22;10739;52.198;20.908;2022-07-21T06:53:01;23.20;99.90
21163;DHT22;10739;52.198;20.908;2022-07-21T06:55:28;23.20;99.90
21163;DHT22;10739;52.198;20.908;2022-07-21T06:57:55;23.30;99.90
21163;DHT22;10739;52.198;20.908;2022-07-21T07:00:21;23.40;99.90
21163;DHT22;10739;52.198;20.908;2022-07-21T07:02:48;23.50;99.90
21163;DHT22;10739;52.198;20.908;2022-07-21T07:05:15;23.70;99.90
21163;DHT22;10739;52.198;20.908;2022-07-21T07:07:41;23.60;99.90
21163;DHT22;10739;52.198;20.908;2022-07-21T07:10:09;23.70;99.90
21163;DHT22;10739;52.198;20.908;2022-07-21T07:12:36;23.70;99.90
21163;DHT22;10739;52.198;20.908;2022-07-21T07:15:03;23.70;99.90
21163;DHT22;10739;52.198;20.908;2022-07-21T07:17:29;23.70;99.90
21163;DHT22;10739;52.198;20.908;2022-07-21T07:19:55;23.80;99.90
21163;DHT22;10739;52.198;20.908;2022-07-21T07:22:22;23.90;99.90
21163;DHT22;10739;52.198;20.908;2022-07-21T07:24:48;24.00;99.90
21163;DHT22;10739;52.198;20.908;2022-07-21T07:27:14;24.10;99.90
21163;DHT22;10739;52.198;20.908;2022-07-21T07:29:40;24.10;99.90
21163;DHT22;10739;52.198;20.908;2022-07-21T07:32:06;24.10;99.90
21163;DHT22;10739;52.198;20.908;2022-07-21T07:34:32;24.30;99.90
21163;DHT22;10739;52.198;20.908;2022-07-21T07:36:59;24.30;99.90
21163;DHT22;10739;52.198;20.908;2022-07-21T07:39:26;24.50;99.90
21163;DHT22;10739;52.198;20.908;2022-07-21T07:41:52;24.80;99.90
21163;DHT22;10739;52.198;20.908;2022-07-21T07:44:18;24.80;99.90
21163;DHT22;10739;52.198;20.908;2022-07-21T07:46:44;24.90;99.90
21163;DHT22;10739;52.198;20.908;2022-07-21T07:49:11;25.00;99.90
21163;DHT22;10739;52.198;20.908;2022-07-21T07:51:37;25.00;99.90
21163;DHT22;10739;52.198;20.908;2022-07-21T07:54:04;25.10;99.90
21163;DHT22;10739;52.198;20.908;2022-07-21T07:56:31;25.30;99.90
21163;DHT22;10739;52.198;20.908;2022-07-21T07:58:58;25.60;99.90
21163;DHT22;10739;52.198;20.908;2022-07-21T08:01:24;25.60;99.90
21163;DHT22;10739;52.198;20.908;2022-07-21T08:03:50;25.60;99.90
21163;DHT22;10739;52.198;20.908;2022-07-21T08:06:17;25.70;99.90
21163;DHT22;10739;52.198;20.908;2022-07-21T08:08:43;25.90;99.90
21163;DHT22;10739;52.198;20.908;2022-07-21T08:11:09;26.20;99.90
21163;DHT22;10739;52.198;20.908;2022-07-21T08:13:37;26.20;99.90
21163;DHT22;10739;52.198;20.908;2022-07-21T08:16:03;26.30;99.90
21163;DHT22;10739;52.198;20.908;2022-07-21T08:18:30;26.50;99.90
21163;DHT22;10739;52.198;20.908;2022-07-21T08:20:56;26.50;99.90
21163;DHT22;10739;52.198;20.908;2022-07-21T08:23:22;26.50;99.90
21163;DHT22;10739;52.198;20.908;2022-07-21T08:25:49;26.60;99.90
21163;DHT22;10739;52.198;20.908;2022-07-21T08:28:14;26.80;99.90
21163;DHT22;10739;52.198;20.908;2022-07-21T08:30:41;26.80;99.90
21163;DHT22;10739;52.198;20.908;2022-07-21T08:33:08;27.00;99.90
21163;DHT22;10739;52.198;20.908;2022-07-21T08:35:34;27.10;99.90
21163;DHT22;10739;52.198;20.908;2022-07-21T08:38:06;27.30;99.90
21163;DHT22;10739;52.198;20.908;2022-07-21T08:40:36;27.20;99.90
21163;DHT22;10739;52.198;20.908;2022-07-21T08:43:05;27.00;99.90
21163;DHT22;10739;52.198;20.908;2022-07-21T08:45:35;27.10;99.90
21163;DHT22;10739;52.198;20.908;2022-07-21T08:48:02;27.30;99.90
21163;DHT22;10739;52.198;20.908;2022-07-21T08:50:35;27.20;99.90
21163;DHT22;10739;52.198;20.908;2022-07-21T08:53:03;26.90;99.90
21163;DHT22;10739;52.198;20.908;2022-07-21T08:55:34;27.00;99.90
21163;DHT22;10739;52.198;20.908;2022-07-21T08:58:02;27.30;99.90
21163;DHT22;10739;52.198;20.908;2022-07-21T09:00:30;27.40;99.90
21163;DHT22;10739;52.198;20.908;2022-07-21T09:05:44;27.50;99.50
21163;DHT22;10739;52.198;20.908;2022-07-21T09:08:35;27.10;99.70
21163;DHT22;10739;52.198;20.908;2022-07-21T09:13:48;27.10;99.90
21163;DHT22;10739;52.198;20.908;2022-07-21T09:19:06;27.00;99.90
21163;DHT22;10739;52.198;20.908;2022-07-21T09:21:36;27.10;99.90
21163;DHT22;10739;52.198;20.908;2022-07-21T09:29:46;28.40;98.40
21163;DHT22;10739;52.198;20.908;2022-07-21T09:32:31;28.70;97.90
21163;DHT22;10739;52.198;20.908;2022-07-21T09:35:03;29.20;96.60
21163;DHT22;10739;52.198;20.908;2022-07-21T09:37:32;29.20;96.80
21163;DHT22;10739;52.198;20.908;2022-07-21T09:40:07;28.80;96.80
21163;DHT22;10739;52.198;20.908;2022-07-21T09:42:43;29.00;95.60
21163;DHT22;10739;52.198;20.908;2022-07-21T09:45:15;29.10;95.50
21163;DHT22;10739;52.198;20.908;2022-07-21T09:47:46;29.50;94.80
21163;DHT22;10739;52.198;20.908;2022-07-21T09:50:14;29.60;94.80
21163;DHT22;10739;52.198;20.908;2022-07-21T09:52:46;29.90;94.10
21163;DHT22;10739;52.198;20.908;2022-07-21T09:55:15;30.20;93.60
21163;DHT22;10739;52.198;20.908;2022-07-21T09:57:43;30.40;92.50
21163;DHT22;10739;52.198;20.908;2022-07-21T10:00:13;30.60;91.40
21163;DHT22;10739;52.198;20.908;2022-07-21T10:02:43;30.80;91.40
21163;DHT22;10739;52.198;20.908;2022-07-21T10:05:13;31.10;90.50
21163;DHT22;10739;52.198;20.908;2022-07-21T10:07:45;31.60;88.80
21163;DHT22;10739;52.198;20.908;2022-07-21T10:10:13;31.50;85.90
21163;DHT22;10739;52.198;20.908;2022-07-21T10:12:40;31.20;86.90
21163;DHT22;10739;52.198;20.908;2022-07-21T10:15:07;31.70;85.40
21163;DHT22;10739;52.198;20.908;2022-07-21T10:17:35;32.10;84.50
21163;DHT22;10739;52.198;20.908;2022-07-21T10:25:43;33.30;78.60
21163;DHT22;10739;52.198;20.908;2022-07-21T10:28:20;34.20;76.00
21163;DHT22;10739;52.198;20.908;2022-07-21T10:30:56;34.40;72.00
21163;DHT22;10739;52.198;20.908;2022-07-21T10:41:45;35.10;69.90
21163;DHT22;10739;52.198;20.908;2022-07-21T10:55:19;36.50;63.90
21163;DHT22;10739;52.198;20.908;2022-07-21T11:00:48;36.40;63.10
21163;DHT22;10739;52.198;20.908;2022-07-21T11:03:21;35.20;63.50
21163;DHT22;10739;52.198;20.908;2022-07-21T11:06:14;35.60;64.20
21163;DHT22;10739;52.198;20.908;2022-07-21T11:09:09;36.30;64.30
21163;DHT22;10739;52.198;20.908;2022-07-21T11:12:00;36.60;62.40
21163;DHT22;10739;52.198;20.908;2022-07-21T11:17:28;36.20;62.70
21163;DHT22;10739;52.198;20.908;2022-07-21T11:19:56;35.50;64.20
21163;DHT22;10739;52.198;20.908;2022-07-21T11:22:27;36.30;64.50
21163;DHT22;10739;52.198;20.908;2022-07-21T11:25:04;36.80;62.00
21163;DHT22;10739;52.198;20.908;2022-07-21T11:27:34;37.10;62.00
21163;DHT22;10739;52.198;20.908;2022-07-21T11:30:06;37.20;60.60
21163;DHT22;10739;52.198;20.908;2022-07-21T11:32:34;37.30;59.60
21163;DHT22;10739;52.198;20.908;2022-07-21T11:35:03;36.20;59.60
21163;DHT22;10739;52.198;20.908;2022-07-21T11:37:36;36.50;61.30
21163;DHT22;10739;52.198;20.908;2022-07-21T11:40:11;37.30;59.90
21163;DHT22;10739;52.198;20.908;2022-07-21T11:42:40;37.20;59.70
21163;DHT22;10739;52.198;20.908;2022-07-21T11:45:09;36.80;60.00
21163;DHT22;10739;52.198;20.908;2022-07-21T11:47:36;37.20;60.10
21163;DHT22;10739;52.198;20.908;2022-07-21T11:50:09;37.70;59.10
21163;DHT22;10739;52.198;20.908;2022-07-21T11:52:38;37.50;58.20
21163;DHT22;10739;52.198;20.908;2022-07-21T11:55:08;37.60;57.70
21163;DHT22;10739;52.198;20.908;2022-07-21T11:57:37;37.20;59.00
21163;DHT22;10739;52.198;20.908;2022-07-21T12:00:08;37.50;58.60
21163;DHT22;10739;52.198;20.908;2022-07-21T12:02:34;38.00;58.30
21163;DHT22;10739;52.198;20.908;2022-07-21T12:05:03;37.60;58.60
21163;DHT22;10739;52.198;20.908;2022-07-21T12:10:08;38.30;59.50
21163;DHT22;10739;52.198;20.908;2022-07-21T12:12:49;38.70;59.00
21163;DHT22;10739;52.198;20.908;2022-07-21T12:15:21;38.30;58.00
21163;DHT22;10739;52.198;20.908;2022-07-21T12:17:59;38.50;58.50
21163;DHT22;10739;52.198;20.908;2022-07-21T12:20:45;37.30;59.30
21163;DHT22;10739;52.198;20.908;2022-07-21T12:23:27;36.30;60.20
21163;DHT22;10739;52.198;20.908;2022-07-21T12:25:57;36.50;60.90
21163;DHT22;10739;52.198;20.908;2022-07-21T12:28:50;37.20;59.00
21163;DHT22;10739;52.198;20.908;2022-07-21T12:31:22;37.70;58.90
21163;DHT22;10739;52.198;20.908;2022-07-21T12:33:56;38.50;57.90
21163;DHT22;10739;52.198;20.908;2022-07-21T12:36:22;38.70;56.50
21163;DHT22;10739;52.198;20.908;2022-07-21T12:38:51;38.20;56.80
21163;DHT22;10739;52.198;20.908;2022-07-21T12:41:19;37.40;57.80
21163;DHT22;10739;52.198;20.908;2022-07-21T12:46:35;38.20;56.40
21163;DHT22;10739;52.198;20.908;2022-07-21T12:49:10;38.30;56.90
21163;DHT22;10739;52.198;20.908;2022-07-21T12:51:38;38.80;56.40
21163;DHT22;10739;52.198;20.908;2022-07-21T12:54:05;39.10;56.10
21163;DHT22;10739;52.198;20.908;2022-07-21T12:56:33;38.50;57.90
21163;DHT22;10739;52.198;20.908;2022-07-21T12:59:02;38.50;57.60
21163;DHT22;10739;52.198;20.908;2022-07-21T13:01:29;38.70;57.10
21163;DHT22;10739;52.198;20.908;2022-07-21T13:03:57;38.20;56.90
21163;DHT22;10739;52.198;20.908;2022-07-21T13:06:23;38.10;57.60
21163;DHT22;10739;52.198;20.908;2022-07-21T13:08:51;37.90;56.90
21163;DHT22;10739;52.198;20.908;2022-07-21T13:11:19;37.30;58.60
21163;DHT22;10739;52.198;20.908;2022-07-21T13:13:50;37.90;57.30
21163;DHT22;10739;52.198;20.908;2022-07-21T13:16:18;38.10;56.90
21163;DHT22;10739;52.198;20.908;2022-07-21T13:18:45;38.60;56.40
21163;DHT22;10739;52.198;20.908;2022-07-21T13:21:12;38.20;57.20
21163;DHT22;10739;52.198;20.908;2022-07-21T13:23:39;37.20;58.20
21163;DHT22;10739;52.198;20.908;2022-07-21T13:26:05;37.50;58.70
21163;DHT22;10739;52.198;20.908;2022-07-21T13:28:34;37.10;57.80
21163;DHT22;10739;52.198;20.908;2022-07-21T13:31:01;36.60;58.50
21163;DHT22;10739;52.198;20.908;2022-07-21T13:33:28;37.20;58.50
21163;DHT22;10739;52.198;20.908;2022-07-21T13:35:54;37.70;57.50
21163;DHT22;10739;52.198;20.908;2022-07-21T13:38:21;37.30;57.70
21163;DHT22;10739;52.198;20.908;2022-07-21T13:40:47;37.40;58.20
21163;DHT22;10739;52.198;20.908;2022-07-21T13:43:13;37.80;57.50
21163;DHT22;10739;52.198;20.908;2022-07-21T13:45:42;38.30;56.70
21163;DHT22;10739;52.198;20.908;2022-07-21T13:48:08;38.70;56.90
21163;DHT22;10739;52.198;20.908;2022-07-21T13:50:34;38.60;56.60
21163;DHT22;10739;52.198;20.908;2022-07-21T13:53:00;38.40;57.10
21163;DHT22;10739;52.198;20.908;2022-07-21T13:55:26;38.60;55.60
21163;DHT22;10739;52.198;20.908;2022-07-21T13:57:53;38.30;55.80
21163;DHT22;10739;52.198;20.908;2022-07-21T14:00:19;37.80;56.60
21163;DHT22;10739;52.198;20.908;2022-07-21T14:02:45;37.30;56.20
21163;DHT22;10739;52.198;20.908;2022-07-21T14:05:13;37.20;56.70
21163;DHT22;10739;52.198;20.908;2022-07-21T14:07:39;37.80;57.20
21163;DHT22;10739;52.198;20.908;2022-07-21T14:10:07;37.90;57.10
21163;DHT22;10739;52.198;20.908;2022-07-21T14:12:33;38.20;57.10
21163;DHT22;10739;52.198;20.908;2022-07-21T14:15:00;37.70;57.10
21163;DHT22;10739;52.198;20.908;2022-07-21T14:17:26;38.00;56.40
21163;DHT22;10739;52.198;20.908;2022-07-21T14:19:52;37.90;57.40
21163;DHT22;10739;52.198;20.908;2022-07-21T14:22:18;38.30;57.20
21163;DHT22;10739;52.198;20.908;2022-07-21T14:24:47;38.10;57.30
21163;DHT22;10739;52.198;20.908;2022-07-21T14:27:33;37.80;57.40
21163;DHT22;10739;52.198;20.908;2022-07-21T14:29:59;37.90;57.30
21163;DHT22;10739;52.198;20.908;2022-07-21T14:32:27;38.00;58.10
21163;DHT22;10739;52.198;20.908;2022-07-21T14:34:54;38.50;57.30
21163;DHT22;10739;52.198;20.908;2022-07-21T14:37:21;38.50;57.10
21163;DHT22;10739;52.198;20.908;2022-07-21T14:39:48;38.50;57.60
21163;DHT22;10739;52.198;20.908;2022-07-21T14:42:15;38.60;57.00
21163;DHT22;10739;52.198;20.908;2022-07-21T14:44:43;37.90;57.70
21163;DHT22;10739;52.198;20.908;2022-07-21T14:47:09;37.80;58.00
21163;DHT22;10739;52.198;20.908;2022-07-21T14:49:36;36.90;58.70
21163;DHT22;10739;52.198;20.908;2022-07-21T14:52:03;36.70;58.70
21163;DHT22;10739;52.198;20.908;2022-07-21T14:54:30;36.40;59.30
21163;DHT22;10739;52.198;20.908;2022-07-21T14:56:57;36.20;59.30
21163;DHT22;10739;52.198;20.908;2022-07-21T14:59:23;36.20;60.00
21163;DHT22;10739;52.198;20.908;2022-07-21T15:01:49;37.00;60.10
21163;DHT22;10739;52.198;20.908;2022-07-21T15:04:15;37.20;59.00
21163;DHT22;10739;52.198;20.908;2022-07-21T15:06:42;36.60;60.00
21163;DHT22;10739;52.198;20.908;2022-07-21T15:09:11;36.70;60.20
21163;DHT22;10739;52.198;20.908;2022-07-21T15:11:38;36.40;60.70
21163;DHT22;10739;52.198;20.908;2022-07-21T15:14:04;36.00;60.70
21163;DHT22;10739;52.198;20.908;2022-07-21T15:16:31;36.00;60.20
21163;DHT22;10739;52.198;20.908;2022-07-21T15:18:57;35.60;63.50
21163;DHT22;10739;52.198;20.908;2022-07-21T15:21:23;34.80;64.40
21163;DHT22;10739;52.198;20.908;2022-07-21T15:23:50;34.80;64.60
21163;DHT22;10739;52.198;20.908;2022-07-21T15:26:16;34.50;66.80
21163;DHT22;10739;52.198;20.908;2022-07-21T15:28:42;34.40;64.90
21163;DHT22;10739;52.198;20.908;2022-07-21T15:31:09;34.10;65.10
21163;DHT22;10739;52.198;20.908;2022-07-21T15:33:35;33.90;66.20
21163;DHT22;10739;52.198;20.908;2022-07-21T15:36:01;33.60;67.10
21163;DHT22;10739;52.198;20.908;2022-07-21T15:38:28;33.30;66.80
21163;DHT22;10739;52.198;20.908;2022-07-21T15:40:55;33.30;66.90
21163;DHT22;10739;52.198;20.908;2022-07-21T15:43:21;33.10;67.60
21163;DHT22;10739;52.198;20.908;2022-07-21T15:45:48;33.10;69.70
21163;DHT22;10739;52.198;20.908;2022-07-21T15:48:14;32.90;68.40
21163;DHT22;10739;52.198;20.908;2022-07-21T15:50:40;32.80;68.10
21163;DHT22;10739;52.198;20.908;2022-07-21T15:53:07;32.50;68.50
21163;DHT22;10739;52.198;20.908;2022-07-21T15:55:34;32.20;69.80
21163;DHT22;10739;52.198;20.908;2022-07-21T15:58:00;32.10;69.90
21163;DHT22;10739;52.198;20.908;2022-07-21T16:00:27;32.00;71.00
21163;DHT22;10739;52.198;20.908;2022-07-21T16:02:53;31.90;71.00
21163;DHT22;10739;52.198;20.908;2022-07-21T16:05:25;31.70;72.80
21163;DHT22;10739;52.198;20.908;2022-07-21T16:07:53;31.60;71.90
21163;DHT22;10739;52.198;20.908;2022-07-21T16:10:21;31.60;71.60
21163;DHT22;10739;52.198;20.908;2022-07-21T16:12:50;31.40;72.10